createdAt,value
2018-11-26T00:02:00.138Z,83.20
2018-11-26T00:04:27.483Z,83.20
2018-11-26T00:06:54.865Z,83.10
2018-11-26T00:09:22.204Z,83.00
2018-11-26T00:11:49.587Z,82.40
2018-11-26T00:14:16.923Z,82.10
2018-11-26T00:16:44.285Z,81.50
2018-11-26T00:19:11.668Z,81.50
2018-11-26T00:21:39.023Z,81.60
2018-11-26T00:24:06.384Z,81.80
2018-11-26T00:26:33.742Z,81.80
2018-11-26T00:29:01.097Z,81.70
2018-11-26T00:31:28.448Z,81.80
2018-11-26T00:33:55.833Z,81.70
2018-11-26T00:36:23.224Z,81.50
2018-11-26T00:38:50.583Z,81.00
2018-11-26T00:41:17.952Z,80.90
2018-11-26T00:43:45.279Z,81.30
2018-11-26T00:46:12.648Z,81.10
2018-11-26T00:48:40.005Z,80.80
2018-11-26T00:51:07.375Z,80.90
2018-11-26T00:53:34.731Z,80.70
2018-11-26T00:56:02.157Z,80.80
2018-11-26T00:58:29.503Z,81.00
2018-11-26T01:00:56.887Z,80.80
2018-11-26T01:03:24.266Z,80.90
2018-11-26T01:05:51.623Z,80.50
2018-11-26T01:08:19.019Z,80.80
2018-11-26T01:10:46.451Z,80.80
2018-11-26T01:13:13.826Z,80.90
2018-11-26T01:15:41.195Z,80.90
2018-11-26T01:18:08.579Z,80.90
2018-11-26T01:20:35.979Z,81.00
2018-11-26T01:23:03.446Z,80.90
2018-11-26T01:25:30.811Z,80.90
2018-11-26T01:27:58.184Z,80.80
2018-11-26T01:30:25.544Z,80.70
2018-11-26T01:32:52.899Z,80.70
2018-11-26T01:35:20.269Z,80.50
2018-11-26T01:37:47.663Z,80.70
2018-11-26T01:40:24.231Z,80.60
2018-11-26T01:42:51.604Z,80.70
2018-11-26T01:45:18.958Z,81.10
2018-11-26T01:47:46.373Z,80.50
2018-11-26T01:50:13.751Z,80.80
2018-11-26T01:52:41.106Z,80.80
2018-11-26T01:55:09.521Z,80.40
2018-11-26T01:57:36.957Z,80.50
2018-11-26T02:00:11.384Z,80.10
2018-11-26T02:02:38.764Z,80.40
2018-11-26T02:05:06.115Z,80.80
2018-11-26T02:07:33.508Z,80.40
2018-11-26T02:10:01.500Z,80.20
2018-11-26T02:12:28.869Z,80.70
2018-11-26T02:14:56.244Z,80.70
2018-11-26T02:17:23.599Z,80.60
2018-11-26T02:19:50.956Z,80.50
2018-11-26T02:22:18.331Z,80.80
2018-11-26T02:24:45.708Z,80.60
2018-11-26T02:27:13.059Z,80.60
2018-11-26T02:29:40.402Z,80.50
2018-11-26T02:32:07.764Z,80.10
2018-11-26T02:34:35.152Z,80.40
2018-11-26T02:37:02.532Z,80.20
2018-11-26T02:39:29.886Z,80.10
2018-11-26T02:41:57.242Z,80.10
2018-11-26T02:44:24.601Z,80.00
2018-11-26T02:46:51.971Z,80.00
2018-11-26T02:49:19.334Z,80.50
2018-11-26T02:51:46.683Z,80.30
2018-11-26T02:54:14.055Z,80.40
2018-11-26T02:56:41.415Z,80.30
2018-11-26T02:59:08.777Z,80.70
2018-11-26T03:01:36.150Z,80.80
2018-11-26T03:04:03.540Z,80.90
2018-11-26T03:06:31.015Z,81.10
2018-11-26T03:08:58.379Z,80.70
2018-11-26T03:11:25.912Z,81.10
2018-11-26T03:13:53.285Z,81.20
2018-11-26T03:16:20.627Z,81.20
2018-11-26T03:18:47.979Z,81.10
2018-11-26T03:21:15.332Z,81.50
2018-11-26T03:23:42.707Z,81.60
2018-11-26T03:26:10.057Z,81.80
2018-11-26T03:28:37.451Z,81.50
2018-11-26T03:31:06.428Z,81.50
2018-11-26T03:33:33.790Z,81.50
2018-11-26T03:36:01.136Z,81.50
2018-11-26T03:39:00.702Z,81.50
2018-11-26T03:41:28.071Z,81.50
2018-11-26T03:43:55.410Z,81.80
2018-11-26T03:46:22.763Z,81.50
2018-11-26T03:48:50.149Z,81.50
2018-11-26T03:51:17.539Z,81.80
2018-11-26T03:53:44.906Z,81.50
2018-11-26T03:56:12.259Z,81.20
2018-11-26T03:58:39.625Z,80.90
2018-11-26T04:01:07.083Z,81.20
2018-11-26T04:03:34.472Z,81.00
2018-11-26T04:06:01.826Z,81.10
2018-11-26T04:08:29.166Z,81.00
2018-11-26T04:10:56.536Z,81.20
2018-11-26T04:13:23.904Z,80.90
2018-11-26T04:15:51.263Z,80.90
2018-11-26T04:18:18.607Z,80.60
2018-11-26T04:20:45.975Z,80.70
2018-11-26T04:23:13.319Z,80.60
2018-11-26T04:25:40.668Z,80.60
2018-11-26T04:28:08.049Z,80.70
2018-11-26T04:30:35.399Z,80.90
2018-11-26T04:33:02.744Z,80.70
2018-11-26T04:35:30.117Z,80.60
2018-11-26T04:37:57.456Z,80.70
2018-11-26T04:40:24.837Z,80.70
2018-11-26T04:42:52.222Z,80.60
2018-11-26T04:45:19.583Z,80.50
2018-11-26T04:47:46.955Z,80.40
2018-11-26T04:50:14.297Z,80.60
2018-11-26T04:52:41.672Z,80.50
2018-11-26T04:55:10.248Z,80.50
2018-11-26T04:57:42.140Z,80.60
2018-11-26T05:00:07.211Z,80.60
2018-11-26T05:02:34.559Z,80.50
2018-11-26T05:05:01.940Z,80.60
2018-11-26T05:07:29.292Z,80.60
2018-11-26T05:09:56.662Z,80.10
2018-11-26T05:12:24.008Z,80.20
2018-11-26T05:14:51.357Z,80.30
2018-11-26T05:17:18.851Z,80.20
2018-11-26T05:19:46.234Z,79.70
2018-11-26T05:22:13.583Z,80.10
2018-11-26T05:24:40.963Z,80.20
2018-11-26T05:27:08.305Z,80.20
2018-11-26T05:29:35.644Z,80.00
2018-11-26T05:32:03.016Z,80.30
2018-11-26T05:34:30.400Z,79.90
2018-11-26T05:36:57.787Z,79.90
2018-11-26T05:39:25.179Z,80.00
2018-11-26T05:41:52.537Z,80.00
2018-11-26T05:44:19.889Z,80.10
2018-11-26T05:46:47.251Z,80.20
2018-11-26T05:49:14.613Z,80.50
2018-11-26T05:51:41.968Z,80.50
2018-11-26T05:54:09.328Z,80.40
2018-11-26T05:56:37.041Z,80.40
2018-11-26T05:59:04.508Z,80.50
2018-11-26T06:01:31.858Z,80.70
2018-11-26T06:03:59.219Z,80.50
2018-11-26T06:06:26.603Z,80.30
2018-11-26T06:08:53.947Z,80.00
2018-11-26T06:11:21.311Z,80.20
2018-11-26T06:13:48.667Z,80.50
2018-11-26T06:16:16.008Z,80.20
2018-11-26T06:18:43.392Z,80.30
2018-11-26T06:21:10.741Z,80.10
2018-11-26T06:23:38.202Z,80.20
2018-11-26T06:26:05.660Z,79.90
2018-11-26T06:28:33.036Z,79.90
2018-11-26T06:31:00.408Z,80.10
2018-11-26T06:33:27.759Z,79.80
2018-11-26T06:35:55.109Z,79.30
2018-11-26T06:38:22.463Z,79.40
2018-11-26T06:40:50.209Z,79.30
2018-11-26T06:43:17.571Z,79.70
2018-11-26T06:45:44.919Z,79.70
2018-11-26T06:48:12.380Z,79.70
2018-11-26T06:50:39.712Z,79.80
2018-11-26T06:53:08.029Z,80.00
2018-11-26T06:55:35.388Z,79.70
2018-11-26T06:58:02.761Z,79.30
2018-11-26T07:00:30.100Z,79.20
2018-11-26T07:02:57.527Z,79.30
2018-11-26T07:05:24.914Z,79.60
2018-11-26T07:07:52.237Z,79.40
2018-11-26T07:10:20.247Z,79.20
2018-11-26T07:12:47.631Z,79.30
2018-11-26T07:15:15.799Z,78.80
2018-11-26T07:17:43.201Z,78.90
2018-11-26T07:20:11.868Z,79.00
2018-11-26T07:22:39.247Z,79.30
2018-11-26T07:25:08.834Z,79.30
2018-11-26T07:27:36.232Z,79.40
2018-11-26T07:30:05.840Z,79.50
2018-11-26T07:32:33.204Z,79.00
2018-11-26T07:35:00.640Z,78.30
2018-11-26T07:37:28.103Z,78.40
2018-11-26T07:39:55.511Z,78.80
2018-11-26T07:42:22.864Z,79.00
2018-11-26T07:44:50.305Z,78.60
2018-11-26T07:47:17.663Z,78.80
2018-11-26T07:49:45.020Z,78.20
2018-11-26T07:52:12.446Z,78.60
2018-11-26T07:54:39.829Z,78.60
2018-11-26T07:57:07.215Z,77.90
2018-11-26T07:59:34.559Z,78.20
2018-11-26T08:02:01.929Z,78.20
2018-11-26T08:04:29.309Z,78.20
2018-11-26T08:06:56.751Z,78.40
2018-11-26T08:09:24.166Z,78.10
2018-11-26T08:11:51.511Z,78.00
2018-11-26T08:14:18.919Z,78.20
2018-11-26T08:16:46.297Z,78.20
2018-11-26T08:19:13.642Z,78.00
2018-11-26T08:21:41.017Z,77.60
2018-11-26T08:24:08.457Z,77.20
2018-11-26T08:26:35.808Z,77.10
2018-11-26T08:29:03.196Z,77.60
2018-11-26T08:31:30.552Z,77.30
2018-11-26T08:33:58.521Z,77.40
2018-11-26T08:36:25.872Z,77.40
2018-11-26T08:38:53.248Z,77.50
2018-11-26T08:41:20.616Z,77.90
2018-11-26T08:43:48.018Z,78.10
2018-11-26T08:46:15.334Z,78.40
2018-11-26T08:48:42.691Z,77.80
2018-11-26T08:51:10.149Z,77.50
2018-11-26T08:53:37.416Z,77.50
2018-11-26T08:56:05.170Z,77.50
2018-11-26T08:58:32.525Z,77.70
2018-11-26T09:00:59.959Z,77.30
2018-11-26T09:03:27.320Z,77.00
2018-11-26T09:05:54.700Z,77.20
2018-11-26T09:08:22.279Z,77.40
2018-11-26T09:10:49.649Z,77.10
2018-11-26T09:13:17.025Z,76.80
2018-11-26T09:15:44.408Z,76.60
2018-11-26T09:18:11.832Z,76.90
2018-11-26T09:20:39.191Z,76.40
2018-11-26T09:23:06.580Z,76.20
2018-11-26T09:25:33.997Z,77.10
2018-11-26T09:28:01.376Z,76.70
2018-11-26T09:30:28.743Z,76.70
2018-11-26T09:32:56.141Z,76.70
2018-11-26T09:35:23.500Z,77.10
2018-11-26T09:37:50.866Z,76.60
2018-11-26T09:40:18.276Z,75.70
2018-11-26T09:42:45.654Z,75.50
2018-11-26T09:45:17.121Z,75.70
2018-11-26T09:47:44.681Z,75.70
2018-11-26T09:50:14.059Z,75.80
2018-11-26T09:52:41.414Z,75.50
2018-11-26T09:55:09.583Z,75.70
2018-11-26T09:57:36.962Z,75.50
2018-11-26T10:00:10.239Z,75.20
2018-11-26T10:02:37.659Z,75.30
2018-11-26T10:05:07.828Z,75.40
2018-11-26T10:07:35.244Z,75.30
2018-11-26T10:10:02.713Z,75.10
2018-11-26T10:12:30.056Z,75.10
2018-11-26T10:14:57.422Z,74.90
2018-11-26T10:17:24.793Z,75.50
2018-11-26T10:19:52.252Z,75.00
2018-11-26T10:22:19.623Z,74.20
2018-11-26T10:24:46.980Z,73.70
2018-11-26T10:27:14.376Z,73.60
2018-11-26T10:29:41.772Z,73.50
2018-11-26T10:32:09.169Z,73.40
2018-11-26T10:34:36.556Z,73.20
2018-11-26T10:37:04.280Z,73.40
2018-11-26T10:39:31.650Z,73.20
2018-11-26T10:41:59.590Z,73.00
2018-11-26T10:44:26.925Z,72.90
2018-11-26T10:46:54.279Z,72.60
2018-11-26T10:49:21.707Z,72.50
2018-11-26T10:51:49.128Z,72.50
2018-11-26T10:54:16.504Z,72.20
2018-11-26T10:56:43.904Z,72.20
2018-11-26T10:59:11.289Z,71.30
2018-11-26T11:01:38.716Z,72.10
2018-11-26T11:04:06.405Z,71.90
2018-11-26T11:06:33.806Z,72.10
2018-11-26T11:09:01.168Z,72.30
2018-11-26T11:11:28.639Z,71.80
2018-11-26T11:13:56.013Z,70.60
2018-11-26T11:16:23.371Z,70.80
2018-11-26T11:18:50.822Z,71.50
2018-11-26T11:21:18.230Z,71.60
2018-11-26T11:23:45.593Z,71.30
2018-11-26T11:26:12.988Z,71.80
2018-11-26T11:28:40.387Z,71.80
2018-11-26T11:31:07.785Z,71.50
2018-11-26T11:33:35.145Z,71.30
2018-11-26T11:36:02.605Z,71.20
2018-11-26T11:38:30.114Z,71.00
2018-11-26T11:40:58.257Z,71.30
2018-11-26T11:43:25.666Z,71.00
2018-11-26T11:45:53.170Z,70.90
2018-11-26T11:48:20.570Z,70.30
2018-11-26T11:50:47.941Z,70.30
2018-11-26T11:53:15.334Z,70.80
2018-11-26T11:55:42.733Z,70.90
2018-11-26T11:58:10.209Z,71.20
2018-11-26T12:00:37.609Z,70.50
2018-11-26T12:03:06.681Z,70.90
2018-11-26T12:05:34.051Z,71.10
2018-11-26T12:08:01.591Z,70.60
2018-11-26T12:10:29.018Z,70.40
2018-11-26T12:12:56.344Z,70.50
2018-11-26T12:15:23.751Z,70.60
2018-11-26T12:17:51.148Z,70.20
2018-11-26T12:20:18.574Z,70.60
2018-11-26T12:22:45.946Z,70.00
2018-11-26T12:25:14.621Z,70.20
2018-11-26T12:27:41.985Z,70.50
2018-11-26T12:30:12.341Z,70.60
2018-11-26T12:32:39.713Z,70.80
2018-11-26T12:35:07.184Z,71.20
2018-11-26T12:37:34.534Z,71.00
2018-11-26T12:40:01.868Z,71.20
2018-11-26T12:42:29.237Z,71.30
2018-11-26T12:44:56.573Z,71.60
2018-11-26T12:47:23.968Z,71.60
2018-11-26T12:49:51.338Z,71.40
2018-11-26T12:52:18.693Z,70.80
2018-11-26T12:54:46.053Z,71.00
2018-11-26T12:57:13.449Z,71.30
2018-11-26T12:59:40.855Z,71.50
2018-11-26T13:02:08.951Z,70.90
2018-11-26T13:04:35.604Z,71.50
2018-11-26T13:07:02.953Z,71.20
2018-11-26T13:09:30.336Z,70.50
2018-11-26T13:11:57.728Z,70.40
2018-11-26T13:14:25.080Z,71.10
2018-11-26T13:16:52.452Z,71.30
2018-11-26T13:19:19.824Z,70.90
2018-11-26T13:21:47.189Z,71.00
2018-11-26T13:24:14.561Z,71.50
2018-11-26T13:26:41.930Z,71.70
2018-11-26T13:29:09.320Z,71.90
2018-11-26T13:31:36.677Z,71.80
2018-11-26T13:34:04.582Z,72.00
2018-11-26T13:36:31.947Z,71.90
2018-11-26T13:38:59.455Z,71.70
2018-11-26T13:41:26.741Z,71.70
2018-11-26T13:43:54.104Z,71.10
2018-11-26T13:46:21.456Z,71.40
2018-11-26T13:48:48.842Z,71.90
2018-11-26T13:51:16.218Z,71.80
2018-11-26T13:53:43.635Z,72.10
2018-11-26T13:56:11.022Z,71.80
2018-11-26T13:58:38.417Z,71.60
2018-11-26T14:01:05.863Z,71.60
2018-11-26T14:03:33.228Z,71.50
2018-11-26T14:06:00.636Z,71.60
2018-11-26T14:08:28.004Z,72.00
2018-11-26T14:10:55.397Z,72.00
2018-11-26T14:13:22.802Z,71.80
2018-11-26T14:15:50.371Z,70.80
2018-11-26T14:18:17.597Z,70.40
2018-11-26T14:20:44.982Z,70.90
2018-11-26T14:23:12.427Z,70.90
2018-11-26T14:25:39.824Z,71.00
2018-11-26T14:28:07.178Z,71.50
2018-11-26T14:30:34.586Z,71.40
2018-11-26T14:33:01.919Z,71.50
2018-11-26T14:35:29.280Z,71.90
2018-11-26T14:37:59.035Z,72.20
2018-11-26T14:40:39.798Z,71.40
2018-11-26T14:43:07.141Z,71.70
2018-11-26T14:45:34.531Z,72.50
2018-11-26T14:48:01.963Z,72.50
2018-11-26T14:50:29.514Z,72.60
2018-11-26T14:52:56.873Z,72.90
2018-11-26T14:55:26.598Z,73.10
2018-11-26T14:57:53.964Z,73.00
2018-11-26T15:00:21.307Z,72.80
2018-11-26T15:02:48.721Z,73.00
2018-11-26T15:05:16.101Z,73.50
2018-11-26T15:07:43.873Z,73.10
2018-11-26T15:10:12.311Z,73.50
2018-11-26T15:12:39.690Z,73.70
2018-11-26T15:15:10.238Z,74.00
2018-11-26T15:17:37.653Z,74.00
2018-11-26T15:20:09.359Z,74.40
2018-11-26T15:22:36.768Z,74.30
2018-11-26T15:25:04.587Z,74.00
2018-11-26T15:27:31.929Z,74.00
2018-11-26T15:29:59.345Z,74.50
2018-11-26T15:32:26.726Z,74.60
2018-11-26T15:34:54.074Z,74.50
2018-11-26T15:37:21.505Z,74.60
2018-11-26T15:39:48.843Z,74.90
2018-11-26T15:42:16.208Z,75.00
2018-11-26T15:44:43.596Z,75.00
2018-11-26T15:47:10.981Z,75.00
2018-11-26T15:49:38.366Z,75.10
2018-11-26T15:52:05.865Z,75.10
2018-11-26T15:54:33.180Z,75.20
2018-11-26T15:57:00.521Z,75.50
2018-11-26T15:59:27.876Z,75.50
2018-11-26T16:01:55.269Z,75.50
2018-11-26T16:04:22.745Z,75.60
2018-11-26T16:06:50.119Z,75.20
2018-11-26T16:09:17.517Z,75.40
2018-11-26T16:11:44.860Z,75.40
2018-11-26T16:14:12.241Z,75.30
2018-11-26T16:16:39.653Z,75.10
2018-11-26T16:19:07.036Z,75.30
2018-11-26T16:21:34.409Z,75.30
2018-11-26T16:24:01.786Z,75.20
2018-11-26T16:26:29.189Z,75.30
2018-11-26T16:28:56.573Z,74.80
2018-11-26T16:31:23.946Z,74.40
2018-11-26T16:33:51.312Z,74.60
2018-11-26T16:36:18.793Z,74.70
2018-11-26T16:38:46.180Z,74.80
2018-11-26T16:41:13.577Z,74.60
2018-11-26T16:43:40.946Z,74.50
2018-11-26T16:46:08.312Z,74.60
2018-11-26T16:48:35.694Z,74.30
2018-11-26T16:51:03.084Z,74.60
2018-11-26T16:53:30.443Z,74.90
2018-11-26T16:55:57.798Z,74.90
2018-11-26T16:58:25.172Z,74.90
2018-11-26T17:00:52.524Z,75.10
2018-11-26T17:03:19.901Z,75.00
2018-11-26T17:05:47.278Z,74.60
2018-11-26T17:08:14.946Z,74.60
2018-11-26T17:10:42.725Z,74.70
2018-11-26T17:13:11.679Z,74.70
2018-11-26T17:15:39.097Z,74.80
2018-11-26T17:18:06.866Z,74.80
2018-11-26T17:20:35.331Z,74.80
2018-11-26T17:23:02.726Z,75.00
2018-11-26T17:25:30.098Z,74.60
2018-11-26T17:27:57.477Z,74.60
2018-11-26T17:30:25.048Z,74.70
2018-11-26T17:33:00.219Z,74.90
2018-11-26T17:35:28.057Z,75.00
2018-11-26T17:37:55.437Z,75.30
2018-11-26T17:40:23.505Z,75.30
2018-11-26T17:42:51.366Z,75.20
2018-11-26T17:45:18.774Z,75.50
2018-11-26T17:47:48.163Z,75.30
2018-11-26T17:50:34.018Z,75.30
2018-11-26T17:53:01.430Z,75.40
2018-11-26T17:55:28.818Z,75.40
2018-11-26T17:57:56.156Z,75.40
2018-11-26T18:00:26.049Z,75.30
2018-11-26T18:02:53.404Z,75.30
2018-11-26T18:05:22.168Z,75.40
2018-11-26T18:07:53.401Z,75.50
2018-11-26T18:10:20.765Z,75.80
2018-11-26T18:12:48.125Z,75.60
2018-11-26T18:15:15.525Z,75.90
2018-11-26T18:17:44.087Z,75.90
2018-11-26T18:20:13.877Z,75.80
2018-11-26T18:22:42.000Z,75.20
2018-11-26T18:25:10.304Z,75.40
2018-11-26T18:27:40.446Z,75.50
2018-11-26T18:30:11.845Z,75.50
2018-11-26T18:32:39.221Z,75.50
2018-11-26T18:35:06.602Z,75.20
2018-11-26T18:37:33.982Z,75.00
2018-11-26T18:40:01.484Z,75.40
2018-11-26T18:42:28.857Z,75.20
2018-11-26T18:44:56.217Z,75.00
2018-11-26T18:47:23.574Z,74.90
2018-11-26T18:49:51.001Z,74.90
2018-11-26T18:52:18.417Z,75.00
2018-11-26T18:54:45.812Z,75.00
2018-11-26T18:57:13.209Z,75.30
2018-11-26T18:59:40.585Z,75.30
2018-11-26T19:02:08.236Z,75.40
2018-11-26T19:04:35.600Z,76.00
2018-11-26T19:07:03.058Z,76.60
2018-11-26T19:09:30.480Z,75.70
2018-11-26T19:11:57.853Z,75.60
2018-11-26T19:14:25.817Z,75.70
2018-11-26T19:16:53.278Z,75.10
2018-11-26T19:19:20.681Z,75.10
2018-11-26T19:21:48.057Z,75.20
2018-11-26T19:24:15.792Z,75.10
2018-11-26T19:26:43.167Z,75.20
2018-11-26T19:29:10.633Z,74.90
2018-11-26T19:31:38.004Z,75.30
2018-11-26T19:34:05.482Z,75.40
2018-11-26T19:36:33.721Z,75.60
2018-11-26T19:39:01.096Z,75.70
2018-11-26T19:41:28.473Z,75.90
2018-11-26T19:43:55.927Z,76.20
2018-11-26T19:46:23.301Z,76.00
2018-11-26T19:48:50.732Z,76.10
2018-11-26T19:51:18.117Z,76.00
2018-11-26T19:53:45.541Z,75.80
2018-11-26T19:56:12.905Z,75.70
2018-11-26T19:58:40.399Z,75.60
2018-11-26T20:01:07.758Z,75.80
2018-11-26T20:03:40.736Z,75.80
2018-11-26T20:06:16.285Z,75.60
2018-11-26T20:08:45.228Z,75.90
2018-11-26T20:11:12.605Z,75.70
2018-11-26T20:13:39.968Z,75.40
2018-11-26T20:16:11.961Z,75.60
2018-11-26T20:18:39.325Z,75.40
2018-11-26T20:21:06.709Z,75.40
2018-11-26T20:23:34.053Z,75.10
2018-11-26T20:26:01.480Z,75.30
2018-11-26T20:28:28.837Z,75.20
2018-11-26T20:30:56.208Z,75.50
2018-11-26T20:33:23.584Z,75.30
2018-11-26T20:35:50.954Z,74.70
2018-11-26T20:38:18.333Z,74.30
2018-11-26T20:40:45.697Z,74.20
2018-11-26T20:43:13.801Z,74.20
2018-11-26T20:45:42.686Z,74.80
2018-11-26T20:48:10.441Z,74.70
2018-11-26T20:50:39.147Z,75.00
2018-11-26T20:53:06.626Z,75.10
2018-11-26T20:55:34.001Z,75.00
2018-11-26T20:58:01.408Z,75.00
2018-11-26T21:00:28.905Z,75.00
2018-11-26T21:02:58.589Z,75.00
2018-11-26T21:05:25.973Z,75.00
2018-11-26T21:07:53.393Z,75.00
2018-11-26T21:10:20.845Z,74.90
2018-11-26T21:12:48.234Z,75.10
2018-11-26T21:15:16.298Z,75.20
2018-11-26T21:17:45.200Z,75.20
2018-11-26T21:20:16.217Z,74.50
2018-11-26T21:22:43.937Z,74.70
2018-11-26T21:25:13.604Z,74.10
2018-11-26T21:27:41.054Z,74.00
2018-11-26T21:30:12.720Z,73.90
2018-11-26T21:32:40.202Z,72.90
2018-11-26T21:35:09.808Z,73.00
2018-11-26T21:37:37.747Z,73.20
2018-11-26T21:40:07.055Z,73.50
2018-11-26T21:42:34.455Z,73.30
2018-11-26T21:45:01.849Z,74.00
2018-11-26T21:47:29.394Z,73.70
2018-11-26T21:49:56.801Z,74.10
2018-11-26T21:52:24.208Z,74.40
2018-11-26T21:54:51.624Z,74.30
2018-11-26T21:57:19.020Z,74.00
2018-11-26T21:59:46.421Z,74.70
2018-11-26T22:02:14.149Z,74.70
2018-11-26T22:04:41.550Z,73.90
2018-11-26T22:07:08.972Z,74.20
2018-11-26T22:09:36.461Z,74.80
2018-11-26T22:12:03.995Z,74.90
2018-11-26T22:14:31.380Z,74.90
2018-11-26T22:16:58.833Z,75.30
2018-11-26T22:19:26.218Z,75.10
2018-11-26T22:21:53.618Z,75.30
2018-11-26T22:24:21.016Z,75.60
2018-11-26T22:26:48.390Z,75.50
2018-11-26T22:29:15.841Z,75.20
2018-11-26T22:31:43.268Z,74.70
2018-11-26T22:34:10.630Z,74.60
2018-11-26T22:36:38.054Z,74.70
2018-11-26T22:39:07.913Z,74.90
2018-11-26T22:41:35.261Z,75.00
2018-11-26T22:44:02.655Z,75.50
2018-11-26T22:46:30.009Z,75.50
2018-11-26T22:48:57.375Z,75.60
2018-11-26T22:51:24.993Z,75.80
2018-11-26T22:53:52.345Z,76.00
2018-11-26T22:56:19.725Z,75.50
2018-11-26T22:58:47.083Z,75.50
2018-11-26T23:01:14.514Z,75.50
2018-11-26T23:03:41.863Z,75.40
2018-11-26T23:36:39.926Z,74.90
2018-11-26T23:39:07.278Z,75.00
